sensor_id;sensor_type;location;lat;lon;timestamp;pressure;altitude;pressure_sealevel;temperature;humidity
74230;BME280;62589;12.568;99.958;2023-07-20T00:00:57;100355.25;;;34.70;49.36
74230;BME280;62589;12.568;99.958;2023-07-20T00:03:23;100352.03;;;34.71;49.17
74230;BME280;62589;12.568;99.958;2023-07-20T00:05:53;100356.41;;;34.72;49.27
74230;BME280;62589;12.568;99.958;2023-07-20T00:08:20;100351.22;;;34.74;49.34
74230;BME280;62589;12.568;99.958;2023-07-20T00:10:46;100337.66;;;34.76;49.64
74230;BME280;62589;12.568;99.958;2023-07-20T00:13:13;100358.78;;;34.81;49.51
74230;BME280;62589;12.568;99.958;2023-07-20T00:15:42;100369.09;;;34.84;50.08
74230;BME280;62589;12.568;99.958;2023-07-20T00:18:08;100362.75;;;34.84;49.72
74230;BME280;62589;12.568;99.958;2023-07-20T00:20:35;100374.66;;;34.88;50.00
74230;BME280;62589;12.568;99.958;2023-07-20T00:23:01;100376.25;;;34.89;49.76
74230;BME280;62589;12.568;99.958;2023-07-20T00:25:27;100376.19;;;34.92;49.88
74230;BME280;62589;12.568;99.958;2023-07-20T00:27:54;100382.16;;;34.94;49.49
74230;BME280;62589;12.568;99.958;2023-07-20T00:30:20;100378.94;;;34.96;49.59
74230;BME280;62589;12.568;99.958;2023-07-20T00:32:47;100376.97;;;34.96;49.99
74230;BME280;62589;12.568;99.958;2023-07-20T00:35:13;100382.13;;;34.98;49.87
74230;BME280;62589;12.568;99.958;2023-07-20T00:37:40;100374.56;;;34.98;49.93
74230;BME280;62589;12.568;99.958;2023-07-20T00:40:07;100376.13;;;34.99;49.50
74230;BME280;62589;12.568;99.958;2023-07-20T00:42:33;100377.69;;;35.04;49.39
74230;BME280;62589;12.568;99.958;2023-07-20T00:45:00;100378.47;;;35.08;49.49
74230;BME280;62589;12.568;99.958;2023-07-20T00:47:27;100374.47;;;35.09;48.89
74230;BME280;62589;12.568;99.958;2023-07-20T00:49:54;100380.00;;;35.12;48.99
74230;BME280;62589;12.568;99.958;2023-07-20T00:52:23;100380.38;;;35.14;48.93
74230;BME280;62589;12.568;99.958;2023-07-20T00:54:50;100383.53;;;35.17;48.61
74230;BME280;62589;12.568;99.958;2023-07-20T00:57:17;100376.38;;;35.15;48.34
74230;BME280;62589;12.568;99.958;2023-07-20T00:59:45;100375.94;;;35.21;48.38
74230;BME280;62589;12.568;99.958;2023-07-20T01:02:11;100377.09;;;35.23;48.35
74230;BME280;62589;12.568;99.958;2023-07-20T01:04:38;100372.31;;;35.24;48.30
74230;BME280;62589;12.568;99.958;2023-07-20T01:07:23;100377.06;;;35.30;48.03
74230;BME280;62589;12.568;99.958;2023-07-20T01:10:07;100377.88;;;35.31;47.97
74230;BME280;62589;12.568;99.958;2023-07-20T01:12:47;100386.56;;;35.36;47.74
74230;BME280;62589;12.568;99.958;2023-07-20T01:15:14;100390.91;;;35.41;48.01
74230;BME280;62589;12.568;99.958;2023-07-20T01:17:40;100391.69;;;35.41;47.54
74230;BME280;62589;12.568;99.958;2023-07-20T01:20:08;100387.66;;;35.46;48.24
74230;BME280;62589;12.568;99.958;2023-07-20T01:31:36;100391.81;;;35.68;47.76
74230;BME280;62589;12.568;99.958;2023-07-20T01:34:03;100390.94;;;35.75;47.52
74230;BME280;62589;12.568;99.958;2023-07-20T01:36:35;100386.53;;;35.77;46.76
74230;BME280;62589;12.568;99.958;2023-07-20T01:39:02;100384.84;;;35.84;46.74
74230;BME280;62589;12.568;99.958;2023-07-20T01:41:30;100384.78;;;35.91;46.61
74230;BME280;62589;12.568;99.958;2023-07-20T01:44:00;100387.13;;;35.96;46.74
74230;BME280;62589;12.568;99.958;2023-07-20T01:46:27;100385.41;;;36.02;46.88
74230;BME280;62589;12.568;99.958;2023-07-20T01:48:54;100391.75;;;36.06;45.28
74230;BME280;62589;12.568;99.958;2023-07-20T01:51:21;100392.50;;;36.10;45.23
74230;BME280;62589;12.568;99.958;2023-07-20T01:53:47;100393.63;;;36.16;45.85
74230;BME280;62589;12.568;99.958;2023-07-20T01:56:14;100387.53;;;36.21;45.88
74230;BME280;62589;12.568;99.958;2023-07-20T01:58:40;100393.13;;;36.25;45.61
74230;BME280;62589;12.568;99.958;2023-07-20T02:01:07;100391.50;;;36.24;45.28
74230;BME280;62589;12.568;99.958;2023-07-20T02:03:33;100388.69;;;36.27;44.80
74230;BME280;62589;12.568;99.958;2023-07-20T02:06:00;100383.91;;;36.28;44.75
74230;BME280;62589;12.568;99.958;2023-07-20T02:08:26;100385.44;;;36.32;45.05
74230;BME280;62589;12.568;99.958;2023-07-20T02:10:52;100385.00;;;36.34;44.48
74230;BME280;62589;12.568;99.958;2023-07-20T02:13:19;100376.56;;;36.37;44.12
74230;BME280;62589;12.568;99.958;2023-07-20T02:15:45;100371.31;;;36.39;44.21
74230;BME280;62589;12.568;99.958;2023-07-20T02:18:13;100379.66;;;36.43;44.72
74230;BME280;62589;12.568;99.958;2023-07-20T02:20:41;100379.25;;;36.44;44.99
74230;BME280;62589;12.568;99.958;2023-07-20T02:23:08;100380.38;;;36.51;45.12
74230;BME280;62589;12.568;99.958;2023-07-20T02:25:34;100380.38;;;36.51;45.17
74230;BME280;62589;12.568;99.958;2023-07-20T02:28:00;100387.59;;;36.48;45.22
74230;BME280;62589;12.568;99.958;2023-07-20T02:30:30;100385.13;;;36.54;45.00
74230;BME280;62589;12.568;99.958;2023-07-20T02:32:56;100387.91;;;36.54;44.50
74230;BME280;62589;12.568;99.958;2023-07-20T02:35:24;100383.53;;;36.53;44.59
74230;BME280;62589;12.568;99.958;2023-07-20T02:37:50;100390.28;;;36.55;44.44
74230;BME280;62589;12.568;99.958;2023-07-20T02:40:17;100380.72;;;36.53;44.50
74230;BME280;62589;12.568;99.958;2023-07-20T02:42:43;100381.53;;;36.53;44.37
74230;BME280;62589;12.568;99.958;2023-07-20T02:45:10;100381.91;;;36.55;44.08
74230;BME280;62589;12.568;99.958;2023-07-20T02:47:36;100387.50;;;36.55;44.13
74230;BME280;62589;12.568;99.958;2023-07-20T02:50:05;100386.69;;;36.55;44.42
74230;BME280;62589;12.568;99.958;2023-07-20T02:52:31;100384.28;;;36.57;44.39
74230;BME280;62589;12.568;99.958;2023-07-20T02:54:58;100376.66;;;36.57;44.43
74230;BME280;62589;12.568;99.958;2023-07-20T02:57:24;100369.06;;;36.58;44.41
74230;BME280;62589;12.568;99.958;2023-07-20T02:59:51;100365.41;;;36.61;44.44
74230;BME280;62589;12.568;99.958;2023-07-20T03:02:17;100367.78;;;36.62;44.05
74230;BME280;62589;12.568;99.958;2023-07-20T03:04:43;100354.59;;;36.63;44.37
74230;BME280;62589;12.568;99.958;2023-07-20T03:07:10;100373.31;;;36.66;43.48
74230;BME280;62589;12.568;99.958;2023-07-20T03:09:36;100363.03;;;36.59;42.64
74230;BME280;62589;12.568;99.958;2023-07-20T03:12:03;100374.53;;;36.65;42.67
74230;BME280;62589;12.568;99.958;2023-07-20T03:14:30;100356.53;;;36.66;42.42
74230;BME280;62589;12.568;99.958;2023-07-20T03:16:57;100361.72;;;36.67;42.46
74230;BME280;62589;12.568;99.958;2023-07-20T03:19:23;100367.25;;;36.71;43.16
74230;BME280;62589;12.568;99.958;2023-07-20T03:21:50;100369.22;;;36.74;43.11
74230;BME280;62589;12.568;99.958;2023-07-20T03:24:16;100356.78;;;36.78;43.40
74230;BME280;62589;12.568;99.958;2023-07-20T03:26:42;100369.81;;;36.85;43.32
74230;BME280;62589;12.568;99.958;2023-07-20T03:29:09;100358.59;;;36.89;42.96
74230;BME280;62589;12.568;99.958;2023-07-20T03:31:35;100365.34;;;36.91;42.66
74230;BME280;62589;12.568;99.958;2023-07-20T03:34:02;100365.34;;;36.91;42.31
74230;BME280;62589;12.568;99.958;2023-07-20T03:36:28;100369.72;;;36.92;41.97
74230;BME280;62589;12.568;99.958;2023-07-20T03:38:55;100362.84;;;36.97;42.37
74230;BME280;62589;12.568;99.958;2023-07-20T03:41:21;100365.28;;;36.95;42.20
74230;BME280;62589;12.568;99.958;2023-07-20T03:43:48;100358.84;;;36.98;42.53
74230;BME280;62589;12.568;99.958;2023-07-20T03:46:14;100367.13;;;37.01;42.91
74230;BME280;62589;12.568;99.958;2023-07-20T03:48:41;100364.34;;;37.01;43.29
74230;BME280;62589;12.568;99.958;2023-07-20T03:51:07;100358.75;;;37.01;43.18
74230;BME280;62589;12.568;99.958;2023-07-20T03:53:34;100358.31;;;37.03;43.06
74230;BME280;62589;12.568;99.958;2023-07-20T03:56:00;100361.06;;;37.06;43.02
74230;BME280;62589;12.568;99.958;2023-07-20T03:58:27;100354.66;;;37.06;43.02
74230;BME280;62589;12.568;99.958;2023-07-20T04:00:53;100361.84;;;37.07;42.62
74230;BME280;62589;12.568;99.958;2023-07-20T04:03:20;100356.25;;;37.07;42.55
74230;BME280;62589;12.568;99.958;2023-07-20T04:05:48;100353.03;;;37.08;42.76
74230;BME280;62589;12.568;99.958;2023-07-20T04:08:15;100353.03;;;37.08;43.09
74230;BME280;62589;12.568;99.958;2023-07-20T04:10:44;100354.63;;;37.09;43.32
74230;BME280;62589;12.568;99.958;2023-07-20T04:13:11;100359.34;;;37.12;43.27
74230;BME280;62589;12.568;99.958;2023-07-20T04:15:38;100348.91;;;37.16;43.26
74230;BME280;62589;12.568;99.958;2023-07-20T04:18:04;100356.06;;;37.17;43.61
74230;BME280;62589;12.568;99.958;2023-07-20T04:20:31;100353.66;;;37.20;43.09
74230;BME280;62589;12.568;99.958;2023-07-20T04:22:57;100342.47;;;37.20;42.72
74230;BME280;62589;12.568;99.958;2023-07-20T04:25:24;100345.28;;;37.20;42.84
74230;BME280;62589;12.568;99.958;2023-07-20T04:27:51;100343.97;;;37.24;42.66
74230;BME280;62589;12.568;99.958;2023-07-20T04:30:19;100344.75;;;37.25;42.30
74230;BME280;62589;12.568;99.958;2023-07-20T04:32:47;100342.31;;;37.27;42.34
74230;BME280;62589;12.568;99.958;2023-07-20T04:35:44;100342.31;;;37.27;42.53
74230;BME280;62589;12.568;99.958;2023-07-20T04:38:03;100340.59;;;37.33;42.50
74230;BME280;62589;12.568;99.958;2023-07-20T04:40:30;100334.94;;;37.36;42.62
74230;BME280;62589;12.568;99.958;2023-07-20T04:42:56;100338.00;;;37.42;42.48
74230;BME280;62589;12.568;99.958;2023-07-20T04:45:22;100336.28;;;37.48;42.41
74230;BME280;62589;12.568;99.958;2023-07-20T04:47:50;100346.28;;;37.49;42.28
74230;BME280;62589;12.568;99.958;2023-07-20T04:50:17;100341.84;;;37.52;41.98
74230;BME280;62589;12.568;99.958;2023-07-20T04:52:43;100348.22;;;37.52;42.04
74230;BME280;62589;12.568;99.958;2023-07-20T04:55:12;100343.84;;;37.51;41.49
74230;BME280;62589;12.568;99.958;2023-07-20T04:57:38;100341.84;;;37.52;41.29
74230;BME280;62589;12.568;99.958;2023-07-20T05:00:05;100339.03;;;37.52;40.93
74230;BME280;62589;12.568;99.958;2023-07-20T05:02:32;100341.03;;;37.51;41.25
74230;BME280;62589;12.568;99.958;2023-07-20T05:04:58;100340.25;;;37.50;40.82
74230;BME280;62589;12.568;99.958;2023-07-20T05:07:25;100341.03;;;37.51;41.19
74230;BME280;62589;12.568;99.958;2023-07-20T05:09:51;100347.44;;;37.52;41.14
74230;BME280;62589;12.568;99.958;2023-07-20T05:12:18;100338.25;;;37.51;41.35
74230;BME280;62589;12.568;99.958;2023-07-20T05:14:44;100332.22;;;37.53;40.59
74230;BME280;62589;12.568;99.958;2023-07-20T05:17:11;100332.13;;;37.56;40.89
74230;BME280;62589;12.568;99.958;2023-07-20T05:19:37;100322.53;;;37.57;42.48
74230;BME280;62589;12.568;99.958;2023-07-20T05:22:04;100321.66;;;37.60;42.94
74230;BME280;62589;12.568;99.958;2023-07-20T05:24:31;100323.97;;;37.65;43.32
74230;BME280;62589;12.568;99.958;2023-07-20T05:26:58;100319.94;;;37.66;43.12
74230;BME280;62589;12.568;99.958;2023-07-20T05:29:25;100297.88;;;37.68;43.16
74230;BME280;62589;12.568;99.958;2023-07-20T05:31:51;100295.44;;;37.70;42.72
74230;BME280;62589;12.568;99.958;2023-07-20T05:34:18;100301.84;;;37.71;42.52
74230;BME280;62589;12.568;99.958;2023-07-20T05:36:44;100300.69;;;37.68;42.17
74230;BME280;62589;12.568;99.958;2023-07-20T05:39:11;100294.34;;;37.64;42.03
74230;BME280;62589;12.568;99.958;2023-07-20T05:41:37;100299.94;;;37.64;42.29
74230;BME280;62589;12.568;99.958;2023-07-20T05:44:04;100303.16;;;37.63;42.67
74230;BME280;62589;12.568;99.958;2023-07-20T05:46:30;100303.28;;;37.59;43.58
74230;BME280;62589;12.568;99.958;2023-07-20T05:48:57;100303.69;;;37.58;43.62
74230;BME280;62589;12.568;99.958;2023-07-20T05:51:23;100300.97;;;37.54;43.89
74230;BME280;62589;12.568;99.958;2023-07-20T05:53:49;100321.44;;;37.51;43.91
74230;BME280;62589;12.568;99.958;2023-07-20T05:56:16;100319.06;;;37.49;45.73
74230;BME280;62589;12.568;99.958;2023-07-20T05:58:42;100326.31;;;37.47;48.06
74230;BME280;62589;12.568;99.958;2023-07-20T06:01:09;100332.41;;;37.42;49.14
74230;BME280;62589;12.568;99.958;2023-07-20T06:03:35;100330.13;;;37.37;49.48
74230;BME280;62589;12.568;99.958;2023-07-20T06:06:03;100329.41;;;37.33;49.79
74230;BME280;62589;12.568;99.958;2023-07-20T06:08:31;100323.09;;;37.29;49.55
74230;BME280;62589;12.568;99.958;2023-07-20T06:10:58;100322.78;;;37.23;50.05
74230;BME280;62589;12.568;99.958;2023-07-20T06:13:24;100315.72;;;37.15;49.85
74230;BME280;62589;12.568;99.958;2023-07-20T06:15:51;100309.47;;;37.07;50.44
74230;BME280;62589;12.568;99.958;2023-07-20T06:18:17;100305.16;;;37.03;50.55
74230;BME280;62589;12.568;99.958;2023-07-20T06:20:49;100308.47;;;36.98;50.43
74230;BME280;62589;12.568;99.958;2023-07-20T06:23:17;100315.34;;;36.93;50.77
74230;BME280;62589;12.568;99.958;2023-07-20T06:25:44;100309.44;;;36.88;50.75
74230;BME280;62589;12.568;99.958;2023-07-20T06:28:11;100313.09;;;36.85;51.59
74230;BME280;62589;12.568;99.958;2023-07-20T06:30:38;100315.56;;;36.79;51.69
74230;BME280;62589;12.568;99.958;2023-07-20T06:33:04;100314.50;;;36.73;51.45
74230;BME280;62589;12.568;99.958;2023-07-20T06:35:31;100324.91;;;36.72;51.70
74230;BME280;62589;12.568;99.958;2023-07-20T06:37:57;100320.53;;;36.68;51.51
74230;BME280;62589;12.568;99.958;2023-07-20T06:40:26;100304.19;;;36.66;51.84
74230;BME280;62589;12.568;99.958;2023-07-20T06:42:53;100288.25;;;36.63;51.88
74230;BME280;62589;12.568;99.958;2023-07-20T06:45:19;100290.31;;;36.59;52.09
74230;BME280;62589;12.568;99.958;2023-07-20T06:47:46;100289.91;;;36.61;52.32
74230;BME280;62589;12.568;99.958;2023-07-20T06:50:12;100288.69;;;36.62;52.68
74230;BME280;62589;12.568;99.958;2023-07-20T06:52:39;100285.88;;;36.62;52.98
74230;BME280;62589;12.568;99.958;2023-07-20T06:55:06;100285.09;;;36.61;53.15
74230;BME280;62589;12.568;99.958;2023-07-20T06:57:33;100281.88;;;36.63;53.08
74230;BME280;62589;12.568;99.958;2023-07-20T06:59:59;100271.06;;;36.65;52.87
74230;BME280;62589;12.568;99.958;2023-07-20T07:02:26;100262.22;;;36.66;52.08
74230;BME280;62589;12.568;99.958;2023-07-20T07:04:52;100259.81;;;36.68;52.59
74230;BME280;62589;12.568;99.958;2023-07-20T07:07:19;100253.78;;;36.70;52.56
74230;BME280;62589;12.568;99.958;2023-07-20T07:09:46;100251.75;;;36.74;52.90
74230;BME280;62589;12.568;99.958;2023-07-20T07:12:12;100247.75;;;36.75;52.82
74230;BME280;62589;12.568;99.958;2023-07-20T07:14:38;100262.50;;;36.75;52.55
74230;BME280;62589;12.568;99.958;2023-07-20T07:17:05;100278.50;;;36.75;51.98
74230;BME280;62589;12.568;99.958;2023-07-20T07:19:32;100298.94;;;36.72;51.70
74230;BME280;62589;12.568;99.958;2023-07-20T07:21:58;100310.50;;;36.70;53.05
74230;BME280;62589;12.568;99.958;2023-07-20T07:24:25;100339.75;;;36.66;52.11
74230;BME280;62589;12.568;99.958;2023-07-20T07:26:51;100337.94;;;36.56;50.15
74230;BME280;62589;12.568;99.958;2023-07-20T07:29:18;100326.88;;;36.48;50.92
74230;BME280;62589;12.568;99.958;2023-07-20T07:31:45;100321.78;;;36.40;50.47
74230;BME280;62589;12.568;99.958;2023-07-20T07:34:20;100318.81;;;36.27;50.48
74230;BME280;62589;12.568;99.958;2023-07-20T07:37:05;100318.50;;;36.18;50.38
74230;BME280;62589;12.568;99.958;2023-07-20T07:39:41;100305.91;;;36.06;50.75
74230;BME280;62589;12.568;99.958;2023-07-20T07:42:07;100306.81;;;36.00;50.95
74230;BME280;62589;12.568;99.958;2023-07-20T07:44:43;100309.09;;;35.78;50.25
74230;BME280;62589;12.568;99.958;2023-07-20T07:47:31;100304.41;;;35.71;50.87
74230;BME280;62589;12.568;99.958;2023-07-20T07:49:57;100303.50;;;35.47;51.48
74230;BME280;62589;12.568;99.958;2023-07-20T07:52:24;100304.38;;;35.41;51.35
74230;BME280;62589;12.568;99.958;2023-07-20T07:54:56;100300.56;;;35.24;52.04
74230;BME280;62589;12.568;99.958;2023-07-20T07:57:25;100314.53;;;35.21;52.25
74230;BME280;62589;12.568;99.958;2023-07-20T08:00:06;100305.59;;;34.99;52.96
74230;BME280;62589;12.568;99.958;2023-07-20T08:02:46;100307.59;;;34.98;53.65
74230;BME280;62589;12.568;99.958;2023-07-20T08:05:14;100313.63;;;34.93;54.07
74230;BME280;62589;12.568;99.958;2023-07-20T08:07:40;100317.66;;;34.89;54.27
74230;BME280;62589;12.568;99.958;2023-07-20T08:10:07;100303.41;;;34.79;54.69
74230;BME280;62589;12.568;99.958;2023-07-20T08:12:34;100309.78;;;34.73;55.01
74230;BME280;62589;12.568;99.958;2023-07-20T08:15:00;100304.28;;;34.69;55.14
74230;BME280;62589;12.568;99.958;2023-07-20T08:17:27;100309.88;;;34.66;54.96
74230;BME280;62589;12.568;99.958;2023-07-20T08:19:53;100293.97;;;34.63;55.96
74230;BME280;62589;12.568;99.958;2023-07-20T08:22:20;100299.16;;;34.61;56.00
74230;BME280;62589;12.568;99.958;2023-07-20T08:24:46;100314.31;;;34.60;56.81
74230;BME280;62589;12.568;99.958;2023-07-20T08:27:13;100322.66;;;34.60;57.63
74230;BME280;62589;12.568;99.958;2023-07-20T08:29:39;100325.84;;;34.62;57.56
74230;BME280;62589;12.568;99.958;2023-07-20T08:32:06;100322.66;;;34.60;57.47
74230;BME280;62589;12.568;99.958;2023-07-20T08:34:33;100317.88;;;34.60;58.11
74230;BME280;62589;12.568;99.958;2023-07-20T08:37:00;100301.16;;;34.60;58.40
74230;BME280;62589;12.568;99.958;2023-07-20T08:39:26;100297.97;;;34.62;58.58
74230;BME280;62589;12.568;99.958;2023-07-20T08:41:54;100294.78;;;34.60;58.11
74230;BME280;62589;12.568;99.958;2023-07-20T08:44:22;100288.00;;;34.61;58.38
74230;BME280;62589;12.568;99.958;2023-07-20T08:46:51;100290.41;;;34.59;58.57
74230;BME280;62589;12.568;99.958;2023-07-20T08:49:18;100288.00;;;34.61;58.07
74230;BME280;62589;12.568;99.958;2023-07-20T08:51:46;100289.22;;;34.60;57.41
74230;BME280;62589;12.568;99.958;2023-07-20T08:54:13;100286.00;;;34.61;57.45
74230;BME280;62589;12.568;99.958;2023-07-20T08:56:41;100286.81;;;34.62;58.01
74230;BME280;62589;12.568;99.958;2023-07-20T08:59:09;100295.16;;;34.62;58.32
74230;BME280;62589;12.568;99.958;2023-07-20T09:01:36;100286.44;;;34.60;58.35
74230;BME280;62589;12.568;99.958;2023-07-20T09:04:05;100277.25;;;34.59;58.51
74230;BME280;62589;12.568;99.958;2023-07-20T09:06:32;100269.69;;;34.60;58.11
74230;BME280;62589;12.568;99.958;2023-07-20T09:09:00;100272.06;;;34.61;58.49
74230;BME280;62589;12.568;99.958;2023-07-20T09:11:27;100268.50;;;34.61;59.02
74230;BME280;62589;12.568;99.958;2023-07-20T09:14:07;100268.88;;;34.63;58.87
74230;BME280;62589;12.568;99.958;2023-07-20T09:16:47;100270.44;;;34.67;58.84
74230;BME280;62589;12.568;99.958;2023-07-20T09:19:17;100270.06;;;34.65;58.88
74230;BME280;62589;12.568;99.958;2023-07-20T09:21:48;100271.66;;;34.63;58.15
74230;BME280;62589;12.568;99.958;2023-07-20T09:24:18;100260.13;;;34.61;57.58
74230;BME280;62589;12.568;99.958;2023-07-20T09:26:46;100258.13;;;34.61;57.90
74230;BME280;62589;12.568;99.958;2023-07-20T09:29:20;100265.72;;;34.61;57.75
74230;BME280;62589;12.568;99.958;2023-07-20T09:32:06;100261.28;;;34.67;57.91
74230;BME280;62589;12.568;99.958;2023-07-20T09:34:33;100259.69;;;34.66;57.20
74230;BME280;62589;12.568;99.958;2023-07-20T09:37:00;100252.16;;;34.63;57.23
74230;BME280;62589;12.568;99.958;2023-07-20T09:39:27;100253.34;;;34.62;56.79
74230;BME280;62589;12.568;99.958;2023-07-20T09:41:53;100255.34;;;34.61;57.14
74230;BME280;62589;12.568;99.958;2023-07-20T09:44:20;100250.97;;;34.60;56.19
74230;BME280;62589;12.568;99.958;2023-07-20T09:46:48;100256.56;;;34.57;56.84
74230;BME280;62589;12.568;99.958;2023-07-20T09:49:15;100250.22;;;34.56;56.65
74230;BME280;62589;12.568;99.958;2023-07-20T09:51:44;100259.38;;;34.57;56.78
74230;BME280;62589;12.568;99.958;2023-07-20T09:54:12;100254.97;;;34.59;56.82
74230;BME280;62589;12.568;99.958;2023-07-20T09:56:40;100252.59;;;34.58;56.19
74230;BME280;62589;12.568;99.958;2023-07-20T09:59:07;100250.22;;;34.53;56.65
74230;BME280;62589;12.568;99.958;2023-07-20T10:01:35;100253.81;;;34.53;56.78
74230;BME280;62589;12.568;99.958;2023-07-20T10:04:07;100253.50;;;34.47;56.01
74230;BME280;62589;12.568;99.958;2023-07-20T10:06:36;100256.28;;;34.47;55.85
74230;BME280;62589;12.568;99.958;2023-07-20T10:09:06;100255.06;;;34.49;55.67
74230;BME280;62589;12.568;99.958;2023-07-20T10:11:36;100255.91;;;34.42;55.72
74230;BME280;62589;12.568;99.958;2023-07-20T10:14:06;100254.34;;;34.37;56.87
74230;BME280;62589;12.568;99.958;2023-07-20T10:16:39;100254.34;;;34.37;56.46
74230;BME280;62589;12.568;99.958;2023-07-20T10:19:11;100267.91;;;34.35;55.98
74230;BME280;62589;12.568;99.958;2023-07-20T10:21:48;100266.38;;;34.27;55.62
74230;BME280;62589;12.568;99.958;2023-07-20T10:24:17;100277.13;;;34.29;56.16
74230;BME280;62589;12.568;99.958;2023-07-20T10:26:44;100286.28;;;34.29;56.00
74230;BME280;62589;12.568;99.958;2023-07-20T10:29:12;100281.91;;;34.28;55.61
74230;BME280;62589;12.568;99.958;2023-07-20T10:31:40;100285.91;;;34.24;55.98
74230;BME280;62589;12.568;99.958;2023-07-20T10:34:06;100288.28;;;34.22;55.38
74230;BME280;62589;12.568;99.958;2023-07-20T10:36:44;100295.06;;;34.21;56.42
74230;BME280;62589;12.568;99.958;2023-07-20T10:39:25;100293.06;;;34.21;56.14
74230;BME280;62589;12.568;99.958;2023-07-20T10:42:08;100292.69;;;34.19;55.77
74230;BME280;62589;12.568;99.958;2023-07-20T10:44:37;100299.94;;;34.06;55.21
74230;BME280;62589;12.568;99.958;2023-07-20T10:47:09;100303.19;;;33.94;54.72
74230;BME280;62589;12.568;99.958;2023-07-20T10:49:59;100308.72;;;34.01;54.55
74230;BME280;62589;12.568;99.958;2023-07-20T10:52:26;100315.19;;;33.84;55.35
74230;BME280;62589;12.568;99.958;2023-07-20T10:55:16;100311.25;;;33.77;54.57
74230;BME280;62589;12.568;99.958;2023-07-20T10:57:43;100315.59;;;33.75;54.92
74230;BME280;62589;12.568;99.958;2023-07-20T11:00:30;100310.03;;;33.75;54.49
74230;BME280;62589;12.568;99.958;2023-07-20T11:02:58;100323.97;;;33.68;54.89
74230;BME280;62589;12.568;99.958;2023-07-20T11:05:38;100321.63;;;33.59;54.08
74230;BME280;62589;12.568;99.958;2023-07-20T11:08:11;100324.41;;;33.59;54.63
74230;BME280;62589;12.568;99.958;2023-07-20T11:10:37;100324.03;;;33.50;55.17
74230;BME280;62589;12.568;99.958;2023-07-20T11:13:22;100329.28;;;33.34;55.19
74230;BME280;62589;12.568;99.958;2023-07-20T11:16:02;100339.22;;;33.21;55.40
74230;BME280;62589;12.568;99.958;2023-07-20T11:18:33;100347.56;;;33.06;54.75
74230;BME280;62589;12.568;99.958;2023-07-20T11:21:08;100354.34;;;33.12;55.59
74230;BME280;62589;12.568;99.958;2023-07-20T11:23:38;100359.13;;;32.87;55.96
74230;BME280;62589;12.568;99.958;2023-07-20T11:26:06;100358.72;;;32.99;55.43
74230;BME280;62589;12.568;99.958;2023-07-20T11:28:34;100353.97;;;32.89;55.05
74230;BME280;62589;12.568;99.958;2023-07-20T11:31:00;100365.09;;;32.82;54.82
74230;BME280;62589;12.568;99.958;2023-07-20T11:33:27;100371.06;;;32.77;55.35
74230;BME280;62589;12.568;99.958;2023-07-20T11:35:53;100365.84;;;32.72;55.69
74230;BME280;62589;12.568;99.958;2023-07-20T11:38:20;100373.81;;;32.63;56.20
74230;BME280;62589;12.568;99.958;2023-07-20T11:40:46;100376.56;;;32.66;55.68
74230;BME280;62589;12.568;99.958;2023-07-20T11:43:13;100367.44;;;32.66;55.64
74230;BME280;62589;12.568;99.958;2023-07-20T11:45:40;100368.22;;;32.70;55.92
74230;BME280;62589;12.568;99.958;2023-07-20T11:48:07;100375.78;;;32.73;55.74
74230;BME280;62589;12.568;99.958;2023-07-20T11:50:39;100385.31;;;32.72;55.66
74230;BME280;62589;12.568;99.958;2023-07-20T11:53:05;100380.13;;;32.63;55.70
74230;BME280;62589;12.568;99.958;2023-07-20T11:55:32;100380.91;;;32.50;55.73
74230;BME280;62589;12.568;99.958;2023-07-20T11:58:06;100380.13;;;32.38;56.50
74230;BME280;62589;12.568;99.958;2023-07-20T12:00:33;100386.06;;;32.44;56.02
74230;BME280;62589;12.568;99.958;2023-07-20T12:03:01;100388.06;;;32.51;56.43
74230;BME280;62589;12.568;99.958;2023-07-20T12:05:30;100391.63;;;32.51;56.33
74230;BME280;62589;12.568;99.958;2023-07-20T12:07:57;100380.88;;;32.28;56.23
74230;BME280;62589;12.568;99.958;2023-07-20T12:10:27;100381.69;;;32.36;56.06
74230;BME280;62589;12.568;99.958;2023-07-20T12:12:55;100383.69;;;32.39;55.79
74230;BME280;62589;12.568;99.958;2023-07-20T12:15:27;100381.72;;;32.50;55.70
74230;BME280;62589;12.568;99.958;2023-07-20T12:17:57;100383.69;;;32.46;55.16
74230;BME280;62589;12.568;99.958;2023-07-20T12:20:36;100392.41;;;32.37;55.54
74230;BME280;62589;12.568;99.958;2023-07-20T12:23:11;100386.06;;;32.33;55.71
74230;BME280;62589;12.568;99.958;2023-07-20T12:25:46;100380.09;;;32.31;55.66
74230;BME280;62589;12.568;99.958;2023-07-20T12:28:15;100376.13;;;32.32;55.38
74230;BME280;62589;12.568;99.958;2023-07-20T12:30:42;100371.00;;;32.38;55.51
74230;BME280;62589;12.568;99.958;2023-07-20T12:33:13;100377.69;;;32.23;56.32
74230;BME280;62589;12.568;99.958;2023-07-20T12:35:43;100374.94;;;32.33;55.87
74230;BME280;62589;12.568;99.958;2023-07-20T12:38:09;100380.91;;;32.42;55.54
74230;BME280;62589;12.568;99.958;2023-07-20T12:40:36;100382.09;;;32.34;55.23
74230;BME280;62589;12.568;99.958;2023-07-20T12:43:02;100380.50;;;32.33;55.73
74230;BME280;62589;12.568;99.958;2023-07-20T12:45:30;100379.69;;;32.33;55.12
74230;BME280;62589;12.568;99.958;2023-07-20T12:47:56;100380.50;;;32.33;55.38
74230;BME280;62589;12.568;99.958;2023-07-20T12:50:23;100384.09;;;32.37;55.39
74230;BME280;62589;12.568;99.958;2023-07-20T12:52:49;100387.66;;;32.45;55.36
74230;BME280;62589;12.568;99.958;2023-07-20T12:55:16;100382.88;;;32.45;55.55